Date,TemperatureHighF,TemperatureAvgF,TemperatureLowF,DewpointHighF,DewpointAvgF,DewpointLowF,HumidityHigh,HumidityAvg,HumidityLow,PressureMaxIn,PressureMinIn,WindSpeedMaxMPH,WindSpeedAvgMPH,GustSpeedMaxMPH,PrecipitationSumIn
2013-8-1,63,57,51,38,-42,-202,41,12,1,30.07,29.98,18,6,23,0.00
2013-8-2,62,55,48,32,-46,-202,33,9,1,29.98,29.89,10,3,18,0.01
2013-8-3,63,54,48,39,-52,-202,41,7,1,30.00,29.89,9,2,10,0.01
2013-8-4,64,55,51,40,-63,-202,42,8,1,30.02,29.95,8,2,10,0.00
2013-8-5,59,54,51,30,-69,-202,33,4,1,30.04,29.98,6,2,9,0.01
2013-8-6,66,57,52,45,-36,-202,49,15,1,30.05,29.98,7,2,8,0.00
2013-8-7,69,60,55,47,-40,-202,46,14,1,30.11,30.04,11,3,17,0.00
2013-8-8,62,56,52,33,-66,-202,34,5,1,30.04,29.94,11,2,15,0.01
2013-8-9,64,56,50,40,-57,-202,43,8,1,29.99,29.92,7,2,10,0.00
2013-8-10,66,59,54,40,-54,-202,40,8,1,30.06,29.99,6,1,8,0.00
2013-8-11,65,56,50,38,-49,-202,38,5,1,30.03,29.93,8,1,13,0.00
2013-8-12,65,56,50,42,-46,-202,45,8,1,30.02,29.93,5,2,10,0.01
2013-8-13,72,57,48,54,-18,-202,56,21,1,30.01,29.92,8,2,14,0.00
2013-8-14,68,59,50,41,-35,-202,43,11,1,29.98,29.91,16,3,19,0.00
2013-8-15,72,63,58,49,-59,-202,44,9,1,29.97,29.91,7,1,10,0.01
2013-8-16,66,60,54,42,-25,-202,43,10,1,30.00,29.92,14,2,17,0.01
2013-8-17,68,60,53,47,-18,-100,50,18,1,29.98,29.86,13,3,20,0.00
2013-8-18,67,58,51,49,-24,-202,53,20,1,29.90,29.77,6,2,8,0.00
2013-8-19,67,59,54,40,-52,-202,38,8,1,29.94,29.79,7,1,12,0.00
2013-8-20,69,61,55,48,-37,-202,48,12,1,29.90,29.82,18,4,24,0.00
2013-8-21,69,61,58,51,-39,-202,53,15,1,29.95,29.89,12,2,13,0.00
2013-8-22,68,60,56,50,-47,-202,52,14,1,29.99,29.91,7,2,10,0.01
2013-8-23,66,58,52,47,-40,-202,49,11,1,29.92,29.82,12,3,19,0.00
2013-8-24,63,56,50,29,-48,-202,29,5,1,29.90,29.82,12,2,14,0.01
2013-8-25,72,61,55,50,-57,-202,46,9,1,29.96,29.87,8,1,9,0.00
2013-8-26,66,58,53,46,-14,-202,50,14,1,30.03,29.92,12,2,19,0.00
2013-8-27,67,59,52,41,-41,-202,39,9,1,29.92,29.84,13,2,20,0.00
2013-8-28,71,61,54,48,-53,-202,44,8,1,29.95,29.84,7,1,8,0.01
2013-8-29,70,63,59,41,-55,-202,37,5,1,30.08,29.94,6,1,10,0.01
2013-8-30,70,62,56,47,-20,-202,44,14,1,30.04,29.93,12,3,18,0.08
2013-8-31,67,58,51,57,-12,-202,95,36,1,29.98,29.88,12,2,17,0.01